Hauptseite
METAR-TAF:

METAR-TAF

Flughäfen :

Militärflugplatz Koksijde

Koksijde, Belgien

Breite: 51-05N, Länge: 002-39E, Höhe: 4 m

Beobachtung

Neuester Wetterbericht von vor 25 Minuten, um 12:55 UTC
Wind 12 kt aus West/Nordwest
Temperatur 22°C
Luftfeuchtigkeit 46%
Luftdruck 1017 hPa
Sichtweite 10 km oder mehr
Leicht bewölkt in der Höhe von 3500 ft
feuchter Dunst

METAR: EBFN 171255Z 29012KT 9999 BR FEW035 22/10 Q1017 BLU BLU

Zeit: 15:20 (13:20 UTC)

Prognose

Neuester Wetterbericht von vor 1 Stunde und 39 Minuten, um 11:41 UTC
Gültige Prognose vom 17 um 13 UTC bis 17 um 22 UTC
Wind 12 kt aus West, Böen bis zu 22 kt
Sichtweite 10 km oder mehr
Leicht bewölkt in der Höhe von 3000 ft
Aufgelockert bewölkt in der Höhe von 21000 ft

TAF: EBFN 171141Z 1713/1722 27012G22KT 9999 FEW030 SCT210

Wetterbeobachtungen und Prognosen von mehr als 4000 Flughäfen (METAR und TAF Bericht).

Die verfügbaren Stationen werden durch gelbe und rote Markierungen auf der Karte dargestellt.

Führen Sie die Maus auf sie, um den Namen der Station zu sehen.

Darauf klicken, um die Beobachtung von Wetterbeobachtungen und Prognosen zu sehen.

Um die Karte zu ändern : klicken Sie auf den grünen Tasten mit einem schwarzen Kreuz Zum Vergrößern, auf den grünen Button mit einem Gedankenstrich zu verkleinern, oder auf die grünen Pfeile für benachbarte Karten.


METAR-TAF: